sensor_id;sensor_type;location;lat;lon;timestamp;pressure;altitude;pressure_sealevel;temperature;humidity
16738;BME280;17906;47.684;10.806;2022-10-16T00:00:45;93364.03;;;6.51;100.00
16738;BME280;17906;47.684;10.806;2022-10-16T00:03:11;93372.25;;;6.56;100.00
16738;BME280;17906;47.684;10.806;2022-10-16T00:05:40;93362.69;;;6.60;100.00
16738;BME280;17906;47.684;10.806;2022-10-16T00:08:07;93361.75;;;6.73;100.00
16738;BME280;17906;47.684;10.806;2022-10-16T00:10:34;93366.53;;;6.70;100.00
16738;BME280;17906;47.684;10.806;2022-10-16T00:13:02;93372.91;;;6.76;100.00
16738;BME280;17906;47.684;10.806;2022-10-16T00:15:29;93385.38;;;6.70;100.00
16738;BME280;17906;47.684;10.806;2022-10-16T00:17:56;93388.53;;;6.67;100.00
16738;BME280;17906;47.684;10.806;2022-10-16T00:20:23;93385.59;;;6.69;100.00
16738;BME280;17906;47.684;10.806;2022-10-16T00:22:49;93372.91;;;6.76;100.00
16738;BME280;17906;47.684;10.806;2022-10-16T00:25:16;93375.88;;;6.68;100.00
16738;BME280;17906;47.684;10.806;2022-10-16T00:27:43;93373.19;;;6.68;100.00
16738;BME280;17906;47.684;10.806;2022-10-16T00:30:11;93374.78;;;6.76;100.00
16738;BME280;17906;47.684;10.806;2022-10-16T00:32:37;93377.47;;;6.76;100.00
16738;BME280;17906;47.684;10.806;2022-10-16T00:35:05;93384.75;;;6.75;100.00
16738;BME280;17906;47.684;10.806;2022-10-16T00:37:32;93368.63;;;6.68;100.00
16738;BME280;17906;47.684;10.806;2022-10-16T00:39:58;93379.56;;;6.74;100.00
16738;BME280;17906;47.684;10.806;2022-10-16T00:42:25;93389.56;;;6.66;100.00
16738;BME280;17906;47.684;10.806;2022-10-16T00:44:53;93390.16;;;6.68;100.00
16738;BME280;17906;47.684;10.806;2022-10-16T00:47:26;93386.06;;;6.66;100.00
16738;BME280;17906;47.684;10.806;2022-10-16T00:49:59;93383.81;;;6.63;100.00
16738;BME280;17906;47.684;10.806;2022-10-16T00:52:26;93379.63;;;6.67;100.00
16738;BME280;17906;47.684;10.806;2022-10-16T00:54:54;93378.75;;;6.73;100.00
16738;BME280;17906;47.684;10.806;2022-10-16T00:57:21;93395.78;;;6.67;100.00
16738;BME280;17906;47.684;10.806;2022-10-16T00:59:48;93379.34;;;6.75;100.00
16738;BME280;17906;47.684;10.806;2022-10-16T01:02:16;93378.75;;;6.73;100.00
16738;BME280;17906;47.684;10.806;2022-10-16T01:04:46;93377.69;;;6.74;100.00
16738;BME280;17906;47.684;10.806;2022-10-16T01:07:18;93372.91;;;6.76;100.00
16738;BME280;17906;47.684;10.806;2022-10-16T01:09:57;93396.22;;;6.64;100.00
16738;BME280;17906;47.684;10.806;2022-10-16T01:12:33;93384.69;;;6.57;100.00
16738;BME280;17906;47.684;10.806;2022-10-16T01:15:10;93383.75;;;6.45;100.00
16738;BME280;17906;47.684;10.806;2022-10-16T01:17:43;93388.09;;;6.46;100.00
16738;BME280;17906;47.684;10.806;2022-10-16T01:20:19;93389.91;;;6.52;100.00
16738;BME280;17906;47.684;10.806;2022-10-16T01:22:56;93394.91;;;6.48;100.00
16738;BME280;17906;47.684;10.806;2022-10-16T01:25:47;93396.78;;;6.48;100.00
16738;BME280;17906;47.684;10.806;2022-10-16T01:28:22;93386.41;;;6.51;100.00
16738;BME280;17906;47.684;10.806;2022-10-16T01:30:54;93387.34;;;6.38;100.00
16738;BME280;17906;47.684;10.806;2022-10-16T01:33:27;93393.41;;;6.27;100.00
16738;BME280;17906;47.684;10.806;2022-10-16T01:35:58;93387.59;;;6.30;100.00
16738;BME280;17906;47.684;10.806;2022-10-16T01:38:31;93396.97;;;6.21;100.00
16738;BME280;17906;47.684;10.806;2022-10-16T01:41:05;93380.72;;;6.09;100.00
16738;BME280;17906;47.684;10.806;2022-10-16T01:43:38;93386.91;;;6.10;100.00
16738;BME280;17906;47.684;10.806;2022-10-16T01:46:07;93390.88;;;6.07;100.00
16738;BME280;17906;47.684;10.806;2022-10-16T01:48:36;93389.75;;;6.15;100.00
16738;BME280;17906;47.684;10.806;2022-10-16T01:51:06;93397.84;;;6.15;100.00
16738;BME280;17906;47.684;10.806;2022-10-16T01:53:33;93398.72;;;6.09;100.00
16738;BME280;17906;47.684;10.806;2022-10-16T01:56:02;93392.69;;;6.13;100.00
16738;BME280;17906;47.684;10.806;2022-10-16T01:58:33;93392.38;;;6.28;100.00
16738;BME280;17906;47.684;10.806;2022-10-16T02:01:04;93394.41;;;6.33;100.00
16738;BME280;17906;47.684;10.806;2022-10-16T02:03:35;93399.00;;;6.26;100.00
16738;BME280;17906;47.684;10.806;2022-10-16T02:06:04;93385.84;;;6.18;100.00
16738;BME280;17906;47.684;10.806;2022-10-16T02:08:31;93387.81;;;6.29;100.00
16738;BME280;17906;47.684;10.806;2022-10-16T02:10:58;93382.97;;;6.37;100.00
16738;BME280;17906;47.684;10.806;2022-10-16T02:13:29;93378.41;;;6.38;100.00
16738;BME280;17906;47.684;10.806;2022-10-16T02:15:58;93388.34;;;6.37;100.00
16738;BME280;17906;47.684;10.806;2022-10-16T02:18:27;93387.13;;;6.40;100.00
16738;BME280;17906;47.684;10.806;2022-10-16T02:20:59;93384.94;;;6.49;100.00
16738;BME280;17906;47.684;10.806;2022-10-16T02:23:32;93389.69;;;6.53;100.00
16738;BME280;17906;47.684;10.806;2022-10-16T02:26:03;93380.94;;;6.58;100.00
16738;BME280;17906;47.684;10.806;2022-10-16T02:28:35;93383.03;;;6.56;100.00
16738;BME280;17906;47.684;10.806;2022-10-16T02:31:09;93383.22;;;6.61;100.00
16738;BME280;17906;47.684;10.806;2022-10-16T02:33:38;93387.97;;;6.59;100.00
16738;BME280;17906;47.684;10.806;2022-10-16T02:36:07;93385.50;;;6.57;100.00
16738;BME280;17906;47.684;10.806;2022-10-16T02:38:34;93384.88;;;6.62;100.00
16738;BME280;17906;47.684;10.806;2022-10-16T02:41:03;93378.81;;;6.66;100.00
16738;BME280;17906;47.684;10.806;2022-10-16T02:43:30;93375.88;;;6.68;100.00
16738;BME280;17906;47.684;10.806;2022-10-16T02:45:57;93374.78;;;6.76;100.00
16738;BME280;17906;47.684;10.806;2022-10-16T02:48:24;93384.41;;;6.65;100.00
16738;BME280;17906;47.684;10.806;2022-10-16T02:50:52;93384.78;;;6.68;100.00
16738;BME280;17906;47.684;10.806;2022-10-16T02:53:19;93395.34;;;6.70;100.00
16738;BME280;17906;47.684;10.806;2022-10-16T02:55:46;93407.78;;;6.71;100.00
16738;BME280;17906;47.684;10.806;2022-10-16T02:58:12;93395.34;;;6.70;100.00
16738;BME280;17906;47.684;10.806;2022-10-16T03:00:39;93400.06;;;6.75;100.00
16738;BME280;17906;47.684;10.806;2022-10-16T03:03:07;93396.72;;;6.79;100.00
16738;BME280;17906;47.684;10.806;2022-10-16T03:05:34;93383.25;;;6.79;100.00
16738;BME280;17906;47.684;10.806;2022-10-16T03:08:02;93395.84;;;6.85;100.00
16738;BME280;17906;47.684;10.806;2022-10-16T03:10:29;93386.75;;;6.80;100.00
16738;BME280;17906;47.684;10.806;2022-10-16T03:12:55;93382.59;;;6.84;100.00
16738;BME280;17906;47.684;10.806;2022-10-16T03:15:22;93383.63;;;6.83;100.00
16738;BME280;17906;47.684;10.806;2022-10-16T03:17:49;93389.03;;;6.83;100.00
16738;BME280;17906;47.684;10.806;2022-10-16T03:20:16;93393.97;;;6.86;100.00
16738;BME280;17906;47.684;10.806;2022-10-16T03:22:42;93382.59;;;6.84;100.00
16738;BME280;17906;47.684;10.806;2022-10-16T03:25:10;93382.69;;;6.95;100.00
16738;BME280;17906;47.684;10.806;2022-10-16T03:27:37;93379.69;;;7.04;100.00
16738;BME280;17906;47.684;10.806;2022-10-16T03:30:04;93382.69;;;6.95;100.00
16738;BME280;17906;47.684;10.806;2022-10-16T03:32:31;93373.31;;;6.98;100.00
16738;BME280;17906;47.684;10.806;2022-10-16T03:34:58;93376.25;;;6.96;100.00
16738;BME280;17906;47.684;10.806;2022-10-16T03:37:25;93369.34;;;7.00;100.00
16738;BME280;17906;47.684;10.806;2022-10-16T03:39:52;93373.31;;;6.98;100.00
16738;BME280;17906;47.684;10.806;2022-10-16T03:42:20;93379.25;;;7.07;100.00
16738;BME280;17906;47.684;10.806;2022-10-16T03:44:46;93377.66;;;6.99;100.00
16738;BME280;17906;47.684;10.806;2022-10-16T03:47:13;93380.72;;;7.03;100.00
16738;BME280;17906;47.684;10.806;2022-10-16T03:49:40;93387.34;;;7.07;100.00
16738;BME280;17906;47.684;10.806;2022-10-16T03:52:07;93373.03;;;7.06;100.00
16738;BME280;17906;47.684;10.806;2022-10-16T03:54:33;93386.41;;;7.13;100.00
16738;BME280;17906;47.684;10.806;2022-10-16T03:57:00;93382.53;;;7.09;100.00
16738;BME280;17906;47.684;10.806;2022-10-16T03:59:28;93381.66;;;7.15;100.00
16738;BME280;17906;47.684;10.806;2022-10-16T04:01:55;93389.13;;;7.13;100.00
16738;BME280;17906;47.684;10.806;2022-10-16T04:04:21;93393.16;;;7.22;100.00
16738;BME280;17906;47.684;10.806;2022-10-16T04:06:48;93384.94;;;7.17;100.00
16738;BME280;17906;47.684;10.806;2022-10-16T04:09:15;93392.72;;;7.25;100.00
16738;BME280;17906;47.684;10.806;2022-10-16T04:11:41;93390.34;;;7.17;100.00
16738;BME280;17906;47.684;10.806;2022-10-16T04:14:08;93379.91;;;7.20;100.00
16738;BME280;17906;47.684;10.806;2022-10-16T04:16:36;93379.91;;;7.20;100.00
16738;BME280;17906;47.684;10.806;2022-10-16T04:19:03;93388.84;;;7.21;100.00
16738;BME280;17906;47.684;10.806;2022-10-16T04:21:29;93370.06;;;7.14;100.00
16738;BME280;17906;47.684;10.806;2022-10-16T04:23:56;93374.69;;;7.07;100.00
16738;BME280;17906;47.684;10.806;2022-10-16T04:26:23;93382.53;;;7.09;100.00
16738;BME280;17906;47.684;10.806;2022-10-16T04:28:49;93386.75;;;7.05;100.00
16738;BME280;17906;47.684;10.806;2022-10-16T04:31:16;93390.41;;;7.10;100.00
16738;BME280;17906;47.684;10.806;2022-10-16T04:33:44;93397.00;;;7.14;100.00
16738;BME280;17906;47.684;10.806;2022-10-16T04:36:11;93388.28;;;7.12;100.00
16738;BME280;17906;47.684;10.806;2022-10-16T04:38:38;93379.78;;;7.15;100.00
16738;BME280;17906;47.684;10.806;2022-10-16T04:41:05;93375.88;;;7.11;100.00
16738;BME280;17906;47.684;10.806;2022-10-16T04:43:32;93371.31;;;7.12;100.00
16738;BME280;17906;47.684;10.806;2022-10-16T04:45:59;93366.72;;;7.12;100.00
16738;BME280;17906;47.684;10.806;2022-10-16T04:48:26;93373.56;;;7.15;100.00
16738;BME280;17906;47.684;10.806;2022-10-16T04:50:54;93367.94;;;7.16;100.00
16738;BME280;17906;47.684;10.806;2022-10-16T04:53:21;93369.13;;;7.20;100.00
16738;BME280;17906;47.684;10.806;2022-10-16T04:55:48;93369.13;;;7.20;100.00
16738;BME280;17906;47.684;10.806;2022-10-16T04:58:15;93367.03;;;7.22;100.00
16738;BME280;17906;47.684;10.806;2022-10-16T05:00:42;93384.63;;;7.25;100.00
16738;BME280;17906;47.684;10.806;2022-10-16T05:03:12;93382.97;;;7.24;100.00
16738;BME280;17906;47.684;10.806;2022-10-16T05:05:42;93377.66;;;7.36;100.00
16738;BME280;17906;47.684;10.806;2022-10-16T05:08:10;93378.06;;;7.39;100.00
16738;BME280;17906;47.684;10.806;2022-10-16T05:10:37;93381.34;;;7.41;100.00
16738;BME280;17906;47.684;10.806;2022-10-16T05:13:04;93383.44;;;7.39;100.00
16738;BME280;17906;47.684;10.806;2022-10-16T05:15:30;93381.81;;;7.38;100.00
16738;BME280;17906;47.684;10.806;2022-10-16T05:17:57;93390.66;;;7.27;100.00
16738;BME280;17906;47.684;10.806;2022-10-16T05:20:24;93381.94;;;7.25;100.00
16738;BME280;17906;47.684;10.806;2022-10-16T05:22:50;93388.19;;;7.25;100.00
16738;BME280;17906;47.684;10.806;2022-10-16T05:25:19;93385.63;;;7.31;100.00
16738;BME280;17906;47.684;10.806;2022-10-16T05:27:47;93391.75;;;7.19;100.00
16738;BME280;17906;47.684;10.806;2022-10-16T05:30:14;93392.34;;;7.21;100.00
16738;BME280;17906;47.684;10.806;2022-10-16T05:32:41;93393.94;;;7.29;100.00
16738;BME280;17906;47.684;10.806;2022-10-16T05:35:08;93403.66;;;7.30;100.00
16738;BME280;17906;47.684;10.806;2022-10-16T05:37:35;93412.00;;;7.28;100.00
16738;BME280;17906;47.684;10.806;2022-10-16T05:40:01;93418.84;;;7.24;100.00
16738;BME280;17906;47.684;10.806;2022-10-16T05:42:31;93420.06;;;7.28;100.00
16738;BME280;17906;47.684;10.806;2022-10-16T05:44:58;93418.56;;;7.33;100.00
16738;BME280;17906;47.684;10.806;2022-10-16T05:47:25;93417.53;;;7.34;100.00
16738;BME280;17906;47.684;10.806;2022-10-16T05:49:51;93419.56;;;7.38;100.00
16738;BME280;17906;47.684;10.806;2022-10-16T05:52:18;93422.50;;;7.37;100.00
16738;BME280;17906;47.684;10.806;2022-10-16T05:54:45;93430.34;;;7.38;100.00
16738;BME280;17906;47.684;10.806;2022-10-16T05:57:11;93432.81;;;7.40;100.00
16738;BME280;17906;47.684;10.806;2022-10-16T05:59:40;93435.50;;;7.40;100.00
16738;BME280;17906;47.684;10.806;2022-10-16T06:02:08;93446.66;;;7.43;100.00
16738;BME280;17906;47.684;10.806;2022-10-16T06:04:38;93448.91;;;7.46;100.00
16738;BME280;17906;47.684;10.806;2022-10-16T06:07:04;93450.94;;;7.51;100.00
16738;BME280;17906;47.684;10.806;2022-10-16T06:09:31;93456.25;;;7.57;100.00
16738;BME280;17906;47.684;10.806;2022-10-16T06:11:58;93452.91;;;7.62;100.00
16738;BME280;17906;47.684;10.806;2022-10-16T06:14:24;93459.41;;;7.73;100.00
16738;BME280;17906;47.684;10.806;2022-10-16T06:16:52;93456.31;;;7.87;100.00
16738;BME280;17906;47.684;10.806;2022-10-16T06:19:19;93459.88;;;8.06;100.00
16738;BME280;17906;47.684;10.806;2022-10-16T06:21:46;93473.19;;;8.20;100.00
16738;BME280;17906;47.684;10.806;2022-10-16T06:24:13;93477.91;;;8.24;100.00
16738;BME280;17906;47.684;10.806;2022-10-16T06:26:39;93474.53;;;8.29;100.00
16738;BME280;17906;47.684;10.806;2022-10-16T06:29:06;93481.56;;;8.30;100.00
16738;BME280;17906;47.684;10.806;2022-10-16T06:31:33;93482.16;;;8.32;100.00
16738;BME280;17906;47.684;10.806;2022-10-16T06:34:01;93490.41;;;8.37;100.00
16738;BME280;17906;47.684;10.806;2022-10-16T06:36:29;93494.69;;;8.44;100.00
16738;BME280;17906;47.684;10.806;2022-10-16T06:38:56;93496.44;;;8.51;100.00
16738;BME280;17906;47.684;10.806;2022-10-16T06:41:23;93497.44;;;8.56;100.00
16738;BME280;17906;47.684;10.806;2022-10-16T06:43:50;93502.13;;;8.61;100.00
16738;BME280;17906;47.684;10.806;2022-10-16T06:46:18;93497.69;;;8.66;100.00
16738;BME280;17906;47.684;10.806;2022-10-16T06:48:46;93504.88;;;8.72;100.00
16738;BME280;17906;47.684;10.806;2022-10-16T06:51:15;93498.56;;;8.79;100.00
16738;BME280;17906;47.684;10.806;2022-10-16T06:53:44;93509.63;;;8.89;100.00
16738;BME280;17906;47.684;10.806;2022-10-16T06:56:13;93506.34;;;8.98;100.00
16738;BME280;17906;47.684;10.806;2022-10-16T06:58:40;93518.13;;;9.04;100.00
16738;BME280;17906;47.684;10.806;2022-10-16T07:01:07;93516.38;;;9.10;100.00
16738;BME280;17906;47.684;10.806;2022-10-16T07:03:36;93518.38;;;9.14;100.00
16738;BME280;17906;47.684;10.806;2022-10-16T07:06:03;93517.91;;;9.17;100.00
16738;BME280;17906;47.684;10.806;2022-10-16T07:08:33;93527.41;;;9.20;100.00
16738;BME280;17906;47.684;10.806;2022-10-16T07:11:00;93534.97;;;9.29;100.00
16738;BME280;17906;47.684;10.806;2022-10-16T07:13:27;93538.72;;;9.28;100.00
16738;BME280;17906;47.684;10.806;2022-10-16T07:15:53;93535.47;;;9.38;100.00
16738;BME280;17906;47.684;10.806;2022-10-16T07:18:20;93540.09;;;9.49;100.00
16738;BME280;17906;47.684;10.806;2022-10-16T07:20:51;93544.09;;;9.58;100.00
16738;BME280;17906;47.684;10.806;2022-10-16T07:23:17;93542.94;;;9.78;100.00
16738;BME280;17906;47.684;10.806;2022-10-16T07:25:45;93531.03;;;9.91;100.00
16738;BME280;17906;47.684;10.806;2022-10-16T07:28:19;93543.25;;;10.05;100.00
16738;BME280;17906;47.684;10.806;2022-10-16T07:30:45;93548.31;;;10.13;100.00
16738;BME280;17906;47.684;10.806;2022-10-16T07:33:12;93552.38;;;10.27;100.00
16738;BME280;17906;47.684;10.806;2022-10-16T07:35:47;93551.91;;;10.42;100.00
16738;BME280;17906;47.684;10.806;2022-10-16T07:38:14;93539.13;;;10.54;100.00
16738;BME280;17906;47.684;10.806;2022-10-16T07:40:40;93547.03;;;10.96;100.00
16738;BME280;17906;47.684;10.806;2022-10-16T07:43:09;93546.34;;;11.68;100.00
16738;BME280;17906;47.684;10.806;2022-10-16T07:45:36;93545.13;;;12.74;96.10
16738;BME280;17906;47.684;10.806;2022-10-16T07:48:02;93530.03;;;14.07;87.02
16738;BME280;17906;47.684;10.806;2022-10-16T07:50:29;93541.41;;;14.88;81.26
16738;BME280;17906;47.684;10.806;2022-10-16T07:52:56;93533.84;;;15.21;79.68
16738;BME280;17906;47.684;10.806;2022-10-16T07:55:23;93537.41;;;15.26;78.48
16738;BME280;17906;47.684;10.806;2022-10-16T07:57:49;93544.13;;;14.93;78.02
16738;BME280;17906;47.684;10.806;2022-10-16T08:00:17;93550.59;;;14.72;80.68
16738;BME280;17906;47.684;10.806;2022-10-16T08:02:44;93546.94;;;14.51;81.93
16738;BME280;17906;47.684;10.806;2022-10-16T08:05:10;93550.59;;;14.67;81.05
16738;BME280;17906;47.684;10.806;2022-10-16T08:07:37;93545.00;;;14.99;81.78
16738;BME280;17906;47.684;10.806;2022-10-16T08:10:04;93547.22;;;15.17;79.38
16738;BME280;17906;47.684;10.806;2022-10-16T08:12:31;93548.16;;;15.63;77.83
16738;BME280;17906;47.684;10.806;2022-10-16T08:14:58;93551.69;;;16.50;73.28
16738;BME280;17906;47.684;10.806;2022-10-16T08:17:26;93546.66;;;17.48;67.19
16738;BME280;17906;47.684;10.806;2022-10-16T08:19:53;93548.69;;;18.05;65.97
16738;BME280;17906;47.684;10.806;2022-10-16T08:22:19;93560.75;;;18.43;64.22
16738;BME280;17906;47.684;10.806;2022-10-16T08:24:46;93555.22;;;19.01;56.65
16738;BME280;17906;47.684;10.806;2022-10-16T08:27:13;93545.72;;;19.13;58.04
16738;BME280;17906;47.684;10.806;2022-10-16T08:29:39;93555.13;;;19.49;57.56
16738;BME280;17906;47.684;10.806;2022-10-16T08:32:06;93555.34;;;19.72;57.19
16738;BME280;17906;47.684;10.806;2022-10-16T08:34:34;93556.03;;;20.20;55.79
16738;BME280;17906;47.684;10.806;2022-10-16T08:37:01;93561.84;;;20.83;49.42
16738;BME280;17906;47.684;10.806;2022-10-16T08:39:27;93567.78;;;21.59;50.55
16738;BME280;17906;47.684;10.806;2022-10-16T08:42:06;93571.19;;;21.92;48.56
16738;BME280;17906;47.684;10.806;2022-10-16T08:47:42;93578.41;;;22.38;46.10
16738;BME280;17906;47.684;10.806;2022-10-16T08:50:14;93574.34;;;22.80;43.16
16738;BME280;17906;47.684;10.806;2022-10-16T08:52:44;93584.31;;;23.30;43.42
16738;BME280;17906;47.684;10.806;2022-10-16T08:55:19;93585.88;;;22.60;42.81
16738;BME280;17906;47.684;10.806;2022-10-16T08:57:53;93587.91;;;23.30;39.97
16738;BME280;17906;47.684;10.806;2022-10-16T09:00:20;93598.44;;;23.51;41.49
16738;BME280;17906;47.684;10.806;2022-10-16T09:02:52;93593.72;;;23.20;42.65
16738;BME280;17906;47.684;10.806;2022-10-16T09:05:38;93593.09;;;23.54;41.34
16738;BME280;17906;47.684;10.806;2022-10-16T09:08:18;93601.72;;;24.27;41.28
16738;BME280;17906;47.684;10.806;2022-10-16T09:10:56;93596.00;;;24.23;40.14
16738;BME280;17906;47.684;10.806;2022-10-16T09:13:28;93595.97;;;23.49;42.05
16738;BME280;17906;47.684;10.806;2022-10-16T09:16:01;93601.78;;;22.77;44.84
16738;BME280;17906;47.684;10.806;2022-10-16T09:18:41;93595.97;;;22.78;44.54
16738;BME280;17906;47.684;10.806;2022-10-16T09:21:16;93592.41;;;23.49;43.29
16738;BME280;17906;47.684;10.806;2022-10-16T09:23:44;93601.13;;;23.33;39.87
16738;BME280;17906;47.684;10.806;2022-10-16T09:26:13;93592.66;;;23.38;39.34
16738;BME280;17906;47.684;10.806;2022-10-16T09:28:41;93601.75;;;23.70;39.54
16738;BME280;17906;47.684;10.806;2022-10-16T09:31:17;93603.34;;;24.11;39.81
16738;BME280;17906;47.684;10.806;2022-10-16T09:33:48;93601.63;;;23.75;38.25
16738;BME280;17906;47.684;10.806;2022-10-16T09:36:18;93595.22;;;24.32;39.66
16738;BME280;17906;47.684;10.806;2022-10-16T09:38:46;93602.34;;;24.93;37.11
16738;BME280;17906;47.684;10.806;2022-10-16T09:41:17;93607.66;;;25.15;41.05
16738;BME280;17906;47.684;10.806;2022-10-16T09:43:52;93610.50;;;24.90;38.70
16738;BME280;17906;47.684;10.806;2022-10-16T09:46:29;93620.13;;;24.57;39.90
16738;BME280;17906;47.684;10.806;2022-10-16T09:48:58;93612.47;;;23.54;41.93
16738;BME280;17906;47.684;10.806;2022-10-16T09:51:28;93608.41;;;22.53;43.55
16738;BME280;17906;47.684;10.806;2022-10-16T09:53:57;93606.66;;;22.35;45.77
16738;BME280;17906;47.684;10.806;2022-10-16T09:56:25;93596.03;;;22.28;43.35
16738;BME280;17906;47.684;10.806;2022-10-16T09:58:54;93597.66;;;22.07;43.84
16738;BME280;17906;47.684;10.806;2022-10-16T10:01:31;93605.75;;;21.76;49.02
16738;BME280;17906;47.684;10.806;2022-10-16T10:04:02;93594.34;;;21.69;44.70
16738;BME280;17906;47.684;10.806;2022-10-16T10:06:33;93606.41;;;21.46;47.23
16738;BME280;17906;47.684;10.806;2022-10-16T10:09:06;93602.38;;;21.24;50.29
16738;BME280;17906;47.684;10.806;2022-10-16T10:11:42;93602.06;;;21.12;51.83
16738;BME280;17906;47.684;10.806;2022-10-16T10:14:28;93601.91;;;21.36;52.55
16738;BME280;17906;47.684;10.806;2022-10-16T10:17:18;93610.19;;;21.50;50.41
16738;BME280;17906;47.684;10.806;2022-10-16T10:19:48;93604.34;;;22.51;45.18
16738;BME280;17906;47.684;10.806;2022-10-16T10:22:28;93600.38;;;23.10;46.01
16738;BME280;17906;47.684;10.806;2022-10-16T10:24:57;93601.41;;;23.63;44.65
16738;BME280;17906;47.684;10.806;2022-10-16T10:27:31;93596.91;;;23.76;45.63
16738;BME280;17906;47.684;10.806;2022-10-16T10:30:01;93595.34;;;23.52;41.86
16738;BME280;17906;47.684;10.806;2022-10-16T10:32:36;93590.72;;;23.87;42.56
16738;BME280;17906;47.684;10.806;2022-10-16T10:35:13;93595.28;;;23.92;40.72
16738;BME280;17906;47.684;10.806;2022-10-16T10:37:56;93598.81;;;24.41;37.35
16738;BME280;17906;47.684;10.806;2022-10-16T10:40:37;93595.03;;;24.54;40.22
16738;BME280;17906;47.684;10.806;2022-10-16T10:43:10;93588.50;;;24.15;37.82
16738;BME280;17906;47.684;10.806;2022-10-16T10:45:43;93595.03;;;23.62;36.16
16738;BME280;17906;47.684;10.806;2022-10-16T10:48:20;93587.22;;;23.56;36.98
16738;BME280;17906;47.684;10.806;2022-10-16T10:50:49;93587.88;;;23.61;37.53
16738;BME280;17906;47.684;10.806;2022-10-16T10:53:31;93587.28;;;23.82;36.83
16738;BME280;17906;47.684;10.806;2022-10-16T10:56:10;93587.19;;;24.13;33.55
16738;BME280;17906;47.684;10.806;2022-10-16T10:59:14;93586.38;;;24.47;36.75
16738;BME280;17906;47.684;10.806;2022-10-16T11:01:50;93586.91;;;24.40;35.13
16738;BME280;17906;47.684;10.806;2022-10-16T11:04:34;93583.13;;;24.45;35.73
16738;BME280;17906;47.684;10.806;2022-10-16T11:07:05;93582.31;;;24.53;34.44
16738;BME280;17906;47.684;10.806;2022-10-16T11:09:41;93589.97;;;24.21;36.16
16738;BME280;17906;47.684;10.806;2022-10-16T11:12:11;93573.19;;;24.35;36.85
16738;BME280;17906;47.684;10.806;2022-10-16T11:14:46;93577.59;;;24.10;38.27
16738;BME280;17906;47.684;10.806;2022-10-16T11:17:19;93573.03;;;24.14;35.86
16738;BME280;17906;47.684;10.806;2022-10-16T11:19:49;93575.75;;;23.97;37.94
16738;BME280;17906;47.684;10.806;2022-10-16T11:22:23;93575.44;;;24.07;36.71
16738;BME280;17906;47.684;10.806;2022-10-16T11:24:57;93575.47;;;24.16;35.17
16738;BME280;17906;47.684;10.806;2022-10-16T11:27:33;93567.34;;;24.19;35.10
16738;BME280;17906;47.684;10.806;2022-10-16T11:30:05;93567.00;;;24.21;37.58
16738;BME280;17906;47.684;10.806;2022-10-16T11:32:49;93567.25;;;23.76;37.24
16738;BME280;17906;47.684;10.806;2022-10-16T11:35:19;93567.00;;;23.47;39.29
16738;BME280;17906;47.684;10.806;2022-10-16T11:37:50;93567.06;;;23.24;35.92
16738;BME280;17906;47.684;10.806;2022-10-16T11:40:24;93573.81;;;23.40;38.35
16738;BME280;17906;47.684;10.806;2022-10-16T11:42:54;93571.25;;;22.82;38.58
16738;BME280;17906;47.684;10.806;2022-10-16T11:45:29;93568.59;;;22.77;39.24
16738;BME280;17906;47.684;10.806;2022-10-16T11:48:01;93559.44;;;22.99;36.86
16738;BME280;17906;47.684;10.806;2022-10-16T11:50:34;93559.44;;;22.99;39.68
16738;BME280;17906;47.684;10.806;2022-10-16T11:53:07;93561.31;;;22.59;38.15
16738;BME280;17906;47.684;10.806;2022-10-16T11:55:40;93561.44;;;22.53;38.93
16738;BME280;17906;47.684;10.806;2022-10-16T11:58:15;93556.47;;;22.42;34.64
16738;BME280;17906;47.684;10.806;2022-10-16T12:00:53;93553.84;;;22.59;37.36
16738;BME280;17906;47.684;10.806;2022-10-16T12:03:28;93552.09;;;22.41;37.52
16738;BME280;17906;47.684;10.806;2022-10-16T12:06:20;93551.03;;;22.28;39.13
16738;BME280;17906;47.684;10.806;2022-10-16T12:08:50;93549.16;;;22.15;39.72
16738;BME280;17906;47.684;10.806;2022-10-16T12:11:31;93550.31;;;22.22;40.05
16738;BME280;17906;47.684;10.806;2022-10-16T12:14:07;93544.41;;;21.79;39.12
16738;BME280;17906;47.684;10.806;2022-10-16T12:16:34;93541.56;;;21.84;39.08
16738;BME280;17906;47.684;10.806;2022-10-16T12:19:11;93546.03;;;21.94;38.87
16738;BME280;17906;47.684;10.806;2022-10-16T12:21:39;93540.38;;;21.99;41.23
16738;BME280;17906;47.684;10.806;2022-10-16T12:24:06;93547.03;;;21.98;39.80
16738;BME280;17906;47.684;10.806;2022-10-16T12:26:38;93551.88;;;21.92;40.59
16738;BME280;17906;47.684;10.806;2022-10-16T12:29:14;93546.16;;;21.75;40.77
16738;BME280;17906;47.684;10.806;2022-10-16T12:31:48;93549.56;;;21.72;40.84
16738;BME280;17906;47.684;10.806;2022-10-16T12:34:22;93555.53;;;21.38;41.11
16738;BME280;17906;47.684;10.806;2022-10-16T12:36:52;93550.69;;;21.57;40.96
16738;BME280;17906;47.684;10.806;2022-10-16T12:39:22;93546.41;;;21.65;39.79
16738;BME280;17906;47.684;10.806;2022-10-16T12:42:02;93551.66;;;21.39;38.72
16738;BME280;17906;47.684;10.806;2022-10-16T12:44:33;93544.47;;;21.24;39.66
16738;BME280;17906;47.684;10.806;2022-10-16T12:47:01;93542.03;;;21.23;40.85
16738;BME280;17906;47.684;10.806;2022-10-16T12:49:36;93532.56;;;21.15;41.48
16738;BME280;17906;47.684;10.806;2022-10-16T12:52:04;93531.19;;;21.12;41.45
16738;BME280;17906;47.684;10.806;2022-10-16T12:54:34;93535.09;;;21.11;40.79
16738;BME280;17906;47.684;10.806;2022-10-16T12:57:17;93531.13;;;21.04;39.75
16738;BME280;17906;47.684;10.806;2022-10-16T12:59:53;93536.19;;;21.24;40.60
16738;BME280;17906;47.684;10.806;2022-10-16T13:02:47;93535.91;;;21.12;40.86
16738;BME280;17906;47.684;10.806;2022-10-16T13:05:26;93534.88;;;21.08;41.55
16738;BME280;17906;47.684;10.806;2022-10-16T13:08:06;93540.28;;;20.99;42.70